createdAt,value
2022-09-09T00:05:19.456Z,0.98
2022-09-09T00:10:26.691Z,1.17
2022-09-09T00:15:43.920Z,1.48
2022-09-09T00:20:58.196Z,1.27
2022-09-09T00:26:05.742Z,1.50
2022-09-09T00:31:33.773Z,1.45
2022-09-09T00:36:36.686Z,1.50
2022-09-09T00:42:00.204Z,1.35
2022-09-09T00:47:36.027Z,1.55
2022-09-09T00:52:49.602Z,1.38
2022-09-09T00:57:53.591Z,1.40
2022-09-09T01:03:03.160Z,1.77
2022-09-09T01:08:31.139Z,1.60
2022-09-09T01:13:36.462Z,1.58
2022-09-09T01:18:50.449Z,1.35
2022-09-09T01:24:33.528Z,1.10
2022-09-09T01:29:35.307Z,1.40
2022-09-09T01:34:41.288Z,1.55
2022-09-09T01:39:46.081Z,1.25
2022-09-09T01:44:48.114Z,1.65
2022-09-09T01:49:49.825Z,1.33
2022-09-09T01:54:51.704Z,1.30
2022-09-09T02:00:14.782Z,1.38
2022-09-09T02:05:42.433Z,1.27
2022-09-09T02:11:04.409Z,1.23
2022-09-09T02:16:12.588Z,1.50
2022-09-09T02:21:16.639Z,1.20
2022-09-09T02:26:22.443Z,1.25
2022-09-09T02:31:26.745Z,1.40
2022-09-09T02:36:33.196Z,1.38
2022-09-09T02:41:38.545Z,1.30
2022-09-09T02:46:59.598Z,1.02
2022-09-09T02:52:18.680Z,1.20
2022-09-09T02:57:32.085Z,1.40
2022-09-09T03:02:33.899Z,1.40
2022-09-09T03:07:35.890Z,1.48
2022-09-09T03:12:37.537Z,1.27
2022-09-09T03:17:39.252Z,1.50
2022-09-09T03:22:41.940Z,1.40
2022-09-09T03:27:43.595Z,1.33
2022-09-09T03:32:48.909Z,1.05
2022-09-09T03:37:50.725Z,1.58
2022-09-09T03:42:52.432Z,1.60
2022-09-09T03:47:55.038Z,1.50
2022-09-09T03:52:56.668Z,1.70
2022-09-09T03:57:58.309Z,1.60
2022-09-09T04:03:00.025Z,1.30
2022-09-09T04:08:01.977Z,1.58
2022-09-09T04:13:04.973Z,1.70
2022-09-09T04:18:07.308Z,1.90
2022-09-09T04:23:08.940Z,1.50
2022-09-09T04:28:10.620Z,1.60
2022-09-09T04:33:13.636Z,1.60
2022-09-09T04:38:16.241Z,1.85
2022-09-09T04:43:18.926Z,1.33
2022-09-09T04:48:21.762Z,1.55
2022-09-09T04:53:23.497Z,1.60
2022-09-09T04:58:25.180Z,1.58
2022-09-09T05:03:27.487Z,1.48
2022-09-09T05:08:29.205Z,2.13
2022-09-09T05:13:33.001Z,1.50
2022-09-09T05:18:34.624Z,1.33
2022-09-09T05:23:36.699Z,1.95
2022-09-09T05:28:38.431Z,1.73
2022-09-09T05:33:42.005Z,1.63
2022-09-09T05:38:44.653Z,1.50
2022-09-09T05:43:48.022Z,1.77
2022-09-09T05:48:52.316Z,2.47
2022-09-09T05:53:56.088Z,1.77
2022-09-09T05:58:57.833Z,2.03
2022-09-09T06:03:59.588Z,2.03
2022-09-09T06:09:01.657Z,2.03
2022-09-09T06:14:04.337Z,2.10
2022-09-09T06:19:06.141Z,1.60
2022-09-09T06:24:08.471Z,1.98
2022-09-09T06:29:10.754Z,2.08
2022-09-09T06:34:12.416Z,1.95
2022-09-09T06:39:16.358Z,1.63
2022-09-09T06:44:18.003Z,1.40
2022-09-09T06:49:19.721Z,1.90
2022-09-09T06:54:22.993Z,1.73
2022-09-09T06:59:24.696Z,1.55
2022-09-09T07:04:26.344Z,1.50
2022-09-09T07:09:28.384Z,1.75
2022-09-09T07:14:30.078Z,1.30
2022-09-09T07:19:31.771Z,1.50
2022-09-09T07:24:33.442Z,1.33
2022-09-09T07:29:35.592Z,1.20
2022-09-09T07:34:37.449Z,1.58
2022-09-09T07:39:39.597Z,1.27
2022-09-09T07:44:41.367Z,1.95
2022-09-09T07:49:43.076Z,1.48
2022-09-09T07:54:46.663Z,1.35
2022-09-09T07:59:51.663Z,1.20
2022-09-09T08:04:53.358Z,1.98
2022-09-09T08:09:56.536Z,1.42
2022-09-09T08:14:58.147Z,1.83
2022-09-09T08:20:04.254Z,1.60
2022-09-09T08:25:07.494Z,1.67
2022-09-09T08:30:09.871Z,1.33
2022-09-09T08:35:11.512Z,1.15
2022-09-09T08:40:23.697Z,1.38
2022-09-09T08:45:29.273Z,1.20
2022-09-09T08:50:36.807Z,1.15
2022-09-09T08:55:52.182Z,1.17
2022-09-09T09:01:02.661Z,1.65
2022-09-09T09:06:23.740Z,1.20
2022-09-09T09:11:25.481Z,0.90
2022-09-09T09:16:58.766Z,2.92
2022-09-09T09:22:21.584Z,1.23
2022-09-09T09:27:35.201Z,0.95
2022-09-09T09:32:40.055Z,1.02
2022-09-09T09:48:13.936Z,1.20
2022-09-09T09:58:24.054Z,1.20
2022-09-09T10:03:28.709Z,1.23
2022-09-09T10:08:34.406Z,1.13
2022-09-09T10:13:50.824Z,1.20
2022-09-09T10:18:52.523Z,1.13
2022-09-09T10:24:28.137Z,1.60
2022-09-09T10:29:45.517Z,1.20
2022-09-09T10:35:04.102Z,1.55
2022-09-09T10:40:31.405Z,1.30
2022-09-09T10:45:49.394Z,1.33
2022-09-09T10:51:00.956Z,1.20
2022-09-09T10:56:24.903Z,1.08
2022-09-09T11:01:37.127Z,1.00
2022-09-09T11:06:45.034Z,1.10
2022-09-09T11:11:55.424Z,1.40
2022-09-09T11:17:17.889Z,1.10
2022-09-09T11:22:45.626Z,0.85
2022-09-09T11:28:35.232Z,1.02
2022-09-09T11:34:30.295Z,0.98
2022-09-09T11:39:32.079Z,1.38
2022-09-09T11:44:33.993Z,0.70
2022-09-09T11:49:43.339Z,1.00
2022-09-09T11:54:50.103Z,1.05
2022-09-09T11:59:55.994Z,1.10
2022-09-09T12:05:09.769Z,1.00
2022-09-09T12:10:37.291Z,0.97
2022-09-09T12:15:52.748Z,0.98
2022-09-09T12:21:00.354Z,2.78
2022-09-09T12:26:07.332Z,1.05
2022-09-09T12:31:18.458Z,0.93
2022-09-09T12:36:25.492Z,0.65
2022-09-09T12:41:29.313Z,0.90
2022-09-09T12:46:37.569Z,0.90
2022-09-09T12:51:39.233Z,1.05
2022-09-09T12:56:40.909Z,1.15
2022-09-09T13:01:42.777Z,1.10
2022-09-09T13:06:44.545Z,0.80
2022-09-09T13:11:57.552Z,0.82
2022-09-09T13:17:04.784Z,0.77
2022-09-09T13:22:22.202Z,1.00
2022-09-09T13:27:32.844Z,0.90
2022-09-09T13:32:34.470Z,1.08
2022-09-09T13:37:38.311Z,0.88
2022-09-09T13:42:43.491Z,0.80
2022-09-09T13:47:46.170Z,0.73
2022-09-09T13:52:50.036Z,0.80
2022-09-09T13:58:01.723Z,0.77
2022-09-09T14:03:03.637Z,0.80
2022-09-09T14:08:07.127Z,1.02
2022-09-09T14:13:09.237Z,0.70
2022-09-09T14:18:13.470Z,0.50
2022-09-09T14:23:16.433Z,0.70
2022-09-09T14:28:20.535Z,0.70
2022-09-09T14:33:29.990Z,0.40
2022-09-09T14:38:34.539Z,0.75
2022-09-09T14:43:36.192Z,0.60
2022-09-09T14:48:39.468Z,0.57
2022-09-09T14:53:41.677Z,0.70
2022-09-09T14:58:44.705Z,0.50
2022-09-09T15:03:55.394Z,0.70
2022-09-09T15:09:01.188Z,1.00
2022-09-09T15:14:04.659Z,1.02
2022-09-09T15:19:06.384Z,0.80
2022-09-09T15:24:09.274Z,0.90
2022-09-09T15:29:11.045Z,0.60
2022-09-09T15:34:14.566Z,0.75
2022-09-09T15:39:18.068Z,0.70
2022-09-09T15:44:20.011Z,0.63
2022-09-09T15:49:26.239Z,0.77
2022-09-09T15:54:28.073Z,0.60
2022-09-09T15:59:32.183Z,0.85
2022-09-09T16:04:34.933Z,0.80
2022-09-09T16:09:36.954Z,0.70
2022-09-09T16:14:39.597Z,1.20
2022-09-09T16:19:41.420Z,0.82
2022-09-09T16:24:43.588Z,0.90
2022-09-09T16:29:45.435Z,0.70
2022-09-09T16:34:47.144Z,1.10
2022-09-09T16:39:48.854Z,0.90
2022-09-09T16:44:51.045Z,1.00
2022-09-09T16:49:52.799Z,1.08
2022-09-09T16:54:54.824Z,1.02
2022-09-09T17:00:00.177Z,0.98
2022-09-09T17:05:01.874Z,1.10
2022-09-09T17:10:04.026Z,1.00
2022-09-09T17:15:06.972Z,1.10
2022-09-09T17:20:09.802Z,1.00
2022-09-09T17:25:12.197Z,1.25
2022-09-09T17:30:14.083Z,1.30
2022-09-09T17:35:16.068Z,1.40
2022-09-09T17:40:17.999Z,1.33
2022-09-09T17:45:20.642Z,1.50
2022-09-09T17:50:22.346Z,1.30
2022-09-09T17:55:24.038Z,1.73
2022-09-09T18:00:25.702Z,1.25
2022-09-09T18:05:27.425Z,1.10
2022-09-09T18:10:29.148Z,1.27
2022-09-09T18:15:48.648Z,1.27
2022-09-09T18:21:03.860Z,1.25
2022-09-09T18:26:15.325Z,0.80
2022-09-09T18:31:19.216Z,1.10
2022-09-09T18:36:27.609Z,0.90
2022-09-09T18:41:35.766Z,1.35
2022-09-09T18:46:37.939Z,1.38
2022-09-09T18:51:41.161Z,1.20
2022-09-09T18:56:44.312Z,1.30
2022-09-09T19:01:47.410Z,2.03
2022-09-09T19:06:50.213Z,1.70
2022-09-09T19:11:51.831Z,1.40
2022-09-09T19:16:53.940Z,1.67
2022-09-09T19:21:58.392Z,1.45
2022-09-09T19:32:49.701Z,1.60
2022-09-09T19:37:25.855Z,1.95
2022-09-09T19:42:30.031Z,1.80
2022-09-09T19:47:31.767Z,1.40
2022-09-09T19:52:33.457Z,1.50
2022-09-09T19:57:35.650Z,1.73
2022-09-09T20:02:37.374Z,1.83
2022-09-09T20:07:39.328Z,1.60
2022-09-09T20:12:42.385Z,1.58
2022-09-09T20:17:44.022Z,1.88
2022-09-09T20:22:45.632Z,2.10
2022-09-09T20:27:47.275Z,2.00
2022-09-09T20:32:48.946Z,1.70
2022-09-09T20:37:50.737Z,1.50
2022-09-09T20:42:52.457Z,1.80
2022-09-09T20:47:57.031Z,1.60
2022-09-09T20:52:58.781Z,1.60
2022-09-09T20:58:01.041Z,1.50
2022-09-09T21:03:02.943Z,1.65
2022-09-09T21:08:04.796Z,1.48
2022-09-09T21:13:06.420Z,1.60
2022-09-09T21:18:08.100Z,1.90
2022-09-09T21:23:13.763Z,1.70
2022-09-09T21:28:16.532Z,1.70
2022-09-09T21:33:20.677Z,1.70
2022-09-09T21:38:24.575Z,1.50
2022-09-09T21:43:26.178Z,1.80
2022-09-09T21:48:28.008Z,1.33
2022-09-09T21:53:29.869Z,1.75
2022-09-09T21:58:31.796Z,1.60
2022-09-09T22:03:37.857Z,1.75
2022-09-09T22:08:40.068Z,1.83
2022-09-09T22:13:42.765Z,1.88
2022-09-09T22:18:45.390Z,1.80
2022-09-09T22:24:13.421Z,1.77
2022-09-09T22:29:15.324Z,1.90
2022-09-09T22:34:17.770Z,1.80
2022-09-09T22:39:19.393Z,1.90
2022-09-09T22:44:21.128Z,2.10
2022-09-09T22:49:23.516Z,1.70
2022-09-09T22:54:25.380Z,1.98
2022-09-09T22:59:27.983Z,1.60
2022-09-09T23:04:30.427Z,1.80
2022-09-09T23:09:32.152Z,1.65
2022-09-09T23:14:34.053Z,2.08
2022-09-09T23:19:37.094Z,1.42
2022-09-09T23:24:38.873Z,1.67
2022-09-09T23:29:40.549Z,1.80
2022-09-09T23:34:42.313Z,2.05
2022-09-09T23:39:44.045Z,2.03
2022-09-09T23:44:47.489Z,2.40
2022-09-09T23:49:50.573Z,2.20
2022-09-09T23:54:52.311Z,1.95
2022-09-09T23:59:53.951Z,2.15
